»·PEaware :: AAL562 KPHX-KLAS

AAL562 :: KPHX-KLAS

FLIGHT INFORMATION

Flight Status: Arrived
Operator:
American Airlines
More flights by this operator :: More flights under this callsign
Pilot: John C. (18682)
Aircraft: AIRBUS A320
(A320)
More flights by this aircraft type
Origin: KPHX Phoenix Sky Harbor Intl
United States
Destination: KLAS McCarran Intl
United States
More flights between these airports :: More routes between these airports
Route: +ZEPER2 RRSTA IGM TYSSN5
File this flight plan on PilotEdge
Remarks:
Altitude:
(Current/Filed)
28,000ft
Speed:
(Current/Filed)
472kts
Departed: 04-Nov-20 05:35 PM
Arrived: 04-Nov-20 06:20 PM
Distance/Time
Traveled:
221nm/0:44
Distance/Time
To Go:
Arrived

Flight Plot

Page will automatically refresh every two minutes.

Flight plan parsing failed; only flown route is shown


Map Options




Map Legend


Flown Route
Filed Route
Departure Airport
Arrival Airport
Navaid (VOR, NDB)
Fix

Horizontal Profiles

Position Reports

Time Latitude Longitude Heading Altitude Ground
Speed
04-Nov-20 17:16 33.437575 -111.998807 270 1132ft 0kts
04-Nov-20 17:17 33.437575 -111.998807 270 1132ft 0kts
04-Nov-20 17:18 33.437575 -111.998807 270 1132ft 0kts
04-Nov-20 17:18 33.437575 -111.998807 270 1132ft 0kts
04-Nov-20 17:20 33.437575 -111.998807 270 1132ft 0kts
04-Nov-20 17:20 33.437575 -111.998807 270 1132ft 0kts
04-Nov-20 17:22 33.437575 -111.998807 270 1132ft 0kts
04-Nov-20 17:22 33.437575 -111.998807 270 1132ft 0kts
04-Nov-20 17:23 33.437575 -111.998807 270 1132ft 0kts
04-Nov-20 17:24 33.437575 -111.998807 270 1132ft 0kts
04-Nov-20 17:25 33.437575 -111.998806 270 1132ft 0kts
04-Nov-20 17:26 33.437495 -111.998306 328 1133ft 2kts
04-Nov-20 17:27 33.437317 -111.998265 0 1133ft 0kts
04-Nov-20 17:28 33.437317 -111.998265 0 1133ft 0kts
04-Nov-20 17:29 33.438969 -111.998527 297 1135ft 9kts
04-Nov-20 17:30 33.439045 -112.004486 268 1131ft 22kts
04-Nov-20 17:31 33.439017 -112.012693 269 1128ft 27kts
04-Nov-20 17:32 33.439028 -112.021507 270 1121ft 23kts
04-Nov-20 17:33 33.439089 -112.029242 290 1115ft 13kts
04-Nov-20 17:34 33.440843 -112.026682 90 1118ft 63kts
04-Nov-20 17:35 33.440298 -111.967882 93 3388ft 217kts
04-Nov-20 17:36 33.436442 -111.882249 79 5796ft 289kts
04-Nov-20 17:37 33.495109 -111.837509 0 8850ft 276kts
04-Nov-20 17:38 33.572561 -111.837194 0 9033ft 280kts
04-Nov-20 17:39 33.650543 -111.836875 356 9037ft 281kts
04-Nov-20 17:40 33.728801 -111.853521 333 10712ft 308kts
04-Nov-20 17:41 33.790417 -111.942737 308 12235ft 377kts
04-Nov-20 17:42 33.853199 -112.046416 308 14919ft 387kts
04-Nov-20 17:43 33.917413 -112.152216 308 17349ft 397kts
04-Nov-20 17:44 33.983356 -112.261105 308 19550ft 407kts
04-Nov-20 17:45 34.057984 -112.364881 322 21535ft 413kts
04-Nov-20 17:46 34.147297 -112.454638 321 23358ft 421kts
04-Nov-20 17:47 34.238494 -112.546486 321 25013ft 429kts
04-Nov-20 17:48 34.331059 -112.640043 321 26470ft 438kts
04-Nov-20 17:49 34.425243 -112.735599 320 27801ft 446kts
04-Nov-20 17:50 34.520777 -112.832807 320 28299ft 451kts
04-Nov-20 17:51 34.618159 -112.932176 321 28299ft 459kts
04-Nov-20 17:52 34.716384 -113.032745 321 28298ft 464kts
04-Nov-20 17:53 34.803187 -113.148353 300 28307ft 472kts
04-Nov-20 17:54 34.877453 -113.280439 307 28288ft 469kts
04-Nov-20 17:55 34.953358 -113.409171 307 28259ft 466kts
04-Nov-20 17:56 35.028787 -113.537448 308 28251ft 461kts
04-Nov-20 17:57 35.099954 -113.659133 307 27436ft 421kts
04-Nov-20 17:58 35.166598 -113.772702 308 25443ft 406kts
04-Nov-20 17:59 35.231335 -113.883556 307 23345ft 395kts
04-Nov-20 18:00 35.306478 -113.976599 325 21257ft 379kts
04-Nov-20 18:01 35.389240 -114.053627 325 19317ft 367kts
04-Nov-20 18:02 35.468894 -114.127915 325 17479ft 354kts
04-Nov-20 18:03 35.545952 -114.199696 325 15676ft 343kts
04-Nov-20 18:04 35.621048 -114.269820 324 13847ft 335kts
04-Nov-20 18:05 35.694030 -114.338153 324 12389ft 316kts
04-Nov-20 18:06 35.763235 -114.393282 341 11845ft 286kts
04-Nov-20 18:07 35.838025 -114.428159 341 11279ft 286kts
04-Nov-20 18:08 35.912434 -114.462988 341 10717ft 285kts
04-Nov-20 18:09 35.984502 -114.496812 341 10254ft 259kts
04-Nov-20 18:10 36.040880 -114.539454 288 9881ft 248kts
04-Nov-20 18:11 36.055294 -114.622848 284 9033ft 247kts
04-Nov-20 18:12 36.069490 -114.705678 283 8233ft 244kts
04-Nov-20 18:13 36.074618 -114.789959 272 7216ft 245kts
04-Nov-20 18:14 36.074063 -114.872283 271 6075ft 229kts
04-Nov-20 18:15 36.073984 -114.945973 271 4860ft 199kts
04-Nov-20 18:16 36.073836 -115.008989 271 3904ft 168kts
04-Nov-20 18:17 36.073749 -115.060547 271 3115ft 142kts
04-Nov-20 18:18 36.073678 -115.109096 270 2372ft 141kts
04-Nov-20 18:19 36.074056 -115.144298 294 2100ft 18kts
04-Nov-20 18:20 36.077212 -115.146567 355 2104ft 11kts
04-Nov-20 18:21 36.078261 -115.143095 92 2089ft 21kts
04-Nov-20 18:22 36.078319 -115.136132 68 2069ft 7kts
04-Nov-20 18:23 36.079987 -115.135654 21 2064ft 0kts
04-Nov-20 18:24 36.079987 -115.135654 21 2064ft 0kts

Navigation Log

Ident Type
Flight plan parsing failed, navigation log unavailable